Time,TemperatureF,DewpointF,PressureIn,WindDirection,WindDirectionDegrees,WindSpeedMPH,WindSpeedGustMPH,Humidity,HourlyPrecipIn,Conditions,Clouds,dailyrainin,SoftwareType,DateUTC
2013-05-25 00:01:00,43.8,35.4,30.45,North,0,0.0,0.0,72,0.00,,,0.00,WUHU216HW,2013-05-25 04:01:00,
2013-05-25 00:02:00,43.7,35.2,30.45,North,0,0.0,0.0,72,0.00,,,0.00,WUHU216HW,2013-05-25 04:02:00,
2013-05-25 00:07:00,43.7,35.2,30.46,North,0,0.0,0.0,72,0.00,,,0.00,WUHU216HW,2013-05-25 04:07:00,
2013-05-25 00:12:00,43.7,35.6,30.46,North,0,0.0,0.0,73,0.00,,,0.00,WUHU216HW,2013-05-25 04:12:00,
2013-05-25 00:17:00,43.7,35.6,30.46,North,0,0.0,0.0,73,0.00,,,0.00,WUHU216HW,2013-05-25 04:17:00,
2013-05-25 00:22:00,43.5,35.4,30.45,North,0,0.0,0.0,73,0.00,,,0.00,WUHU216HW,2013-05-25 04:22:00,
2013-05-25 00:27:00,43.5,35.4,30.45,North,0,0.0,0.0,73,0.00,,,0.00,WUHU216HW,2013-05-25 04:27:00,
2013-05-25 00:32:00,43.3,35.6,30.45,North,0,0.0,0.0,74,0.00,,,0.00,WUHU216HW,2013-05-25 04:32:00,
2013-05-25 00:38:00,43.1,35.4,30.45,North,0,0.0,0.0,74,0.00,,,0.00,WUHU216HW,2013-05-25 04:38:00,
2013-05-25 00:43:00,42.9,35.2,30.45,North,0,0.0,0.0,74,0.00,,,0.00,WUHU216HW,2013-05-25 04:43:00,
2013-05-25 00:48:00,42.8,35.0,30.44,North,0,0.0,0.0,74,0.00,,,0.00,WUHU216HW,2013-05-25 04:48:00,
2013-05-25 00:53:00,42.6,34.9,30.44,North,0,0.0,0.0,74,0.00,,,0.00,WUHU216HW,2013-05-25 04:53:00,
2013-05-25 00:58:00,42.4,34.7,30.44,North,0,0.0,0.0,74,0.00,,,0.00,WUHU216HW,2013-05-25 04:58:00,
2013-05-25 01:03:00,42.0,34.7,30.45,North,0,0.0,0.0,75,0.00,,,0.00,WUHU216HW,2013-05-25 05:03:00,
2013-05-25 01:08:00,41.7,34.3,30.44,North,0,0.0,0.0,75,0.00,,,0.00,WUHU216HW,2013-05-25 05:08:00,
2013-05-25 01:13:00,41.7,34.6,30.45,North,0,0.0,0.0,76,0.00,,,0.00,WUHU216HW,2013-05-25 05:13:00,
2013-05-25 01:18:00,41.7,34.9,30.45,North,0,0.0,0.0,77,0.00,,,0.00,WUHU216HW,2013-05-25 05:18:00,
2013-05-25 01:23:00,41.7,34.9,30.45,North,0,0.0,0.0,77,0.00,,,0.00,WUHU216HW,2013-05-25 05:23:00,
2013-05-25 01:29:00,41.7,34.9,30.45,North,0,0.0,0.0,77,0.00,,,0.00,WUHU216HW,2013-05-25 05:29:00,
2013-05-25 01:34:00,41.1,34.4,30.45,North,0,0.0,0.0,77,0.00,,,0.00,WUHU216HW,2013-05-25 05:34:00,
2013-05-25 01:39:00,40.8,34.0,30.45,North,0,0.0,0.0,77,0.00,,,0.00,WUHU216HW,2013-05-25 05:39:00,
2013-05-25 01:44:00,40.8,34.4,30.45,North,0,0.0,0.0,78,0.00,,,0.00,WUHU216HW,2013-05-25 05:44:00,
2013-05-25 01:49:00,40.6,34.2,30.45,North,0,0.0,0.0,78,0.00,,,0.00,WUHU216HW,2013-05-25 05:49:00,
2013-05-25 01:54:00,40.4,34.0,30.45,North,0,0.0,0.0,78,0.00,,,0.00,WUHU216HW,2013-05-25 05:54:00,
2013-05-25 01:59:00,40.2,33.9,30.45,North,0,0.0,0.0,78,0.00,,,0.00,WUHU216HW,2013-05-25 05:59:00,
2013-05-25 02:04:00,40.6,34.2,30.44,North,0,0.0,0.0,78,0.00,,,0.00,WUHU216HW,2013-05-25 06:04:00,
2013-05-25 02:09:00,40.6,34.2,30.44,North,0,0.0,0.0,78,0.00,,,0.00,WUHU216HW,2013-05-25 06:09:00,
2013-05-25 02:15:00,40.6,34.2,30.44,North,0,0.0,0.0,78,0.00,,,0.00,WUHU216HW,2013-05-25 06:15:00,
2013-05-25 02:20:00,40.4,34.0,30.44,North,0,0.0,0.0,78,0.00,,,0.00,WUHU216HW,2013-05-25 06:20:00,
2013-05-25 02:25:00,40.1,34.0,30.44,North,0,0.0,0.0,79,0.00,,,0.00,WUHU216HW,2013-05-25 06:25:00,
2013-05-25 02:30:00,39.9,33.9,30.44,North,0,0.0,0.0,79,0.00,,,0.00,WUHU216HW,2013-05-25 06:30:00,
2013-05-25 02:35:00,39.9,33.9,30.44,North,0,0.0,0.0,79,0.00,,,0.00,WUHU216HW,2013-05-25 06:35:00,
2013-05-25 02:40:00,39.5,33.6,30.43,North,0,0.0,0.0,79,0.00,,,0.00,WUHU216HW,2013-05-25 06:40:00,
2013-05-25 02:45:00,39.3,33.4,30.42,North,0,0.0,0.0,79,0.00,,,0.00,WUHU216HW,2013-05-25 06:45:00,
2013-05-25 02:50:00,39.3,33.4,30.43,North,0,0.0,0.0,79,0.00,,,0.00,WUHU216HW,2013-05-25 06:50:00,
2013-05-25 02:55:00,39.5,33.6,30.42,North,0,0.0,0.0,79,0.00,,,0.00,WUHU216HW,2013-05-25 06:55:00,
2013-05-25 03:00:00,39.3,33.4,30.43,North,0,0.0,0.0,79,0.00,,,0.00,WUHU216HW,2013-05-25 07:00:00,
2013-05-25 03:05:00,39.0,33.4,30.42,North,0,0.0,0.0,80,0.00,,,0.00,WUHU216HW,2013-05-25 07:05:00,
2013-05-25 03:11:00,39.0,33.4,30.41,North,0,0.0,0.0,80,0.00,,,0.00,WUHU216HW,2013-05-25 07:11:00,
2013-05-25 03:16:00,39.0,33.4,30.41,North,0,0.0,0.0,80,0.00,,,0.00,WUHU216HW,2013-05-25 07:16:00,
2013-05-25 03:21:00,39.0,33.7,30.40,North,0,0.0,0.0,81,0.00,,,0.00,WUHU216HW,2013-05-25 07:21:00,
2013-05-25 03:26:00,39.0,33.7,30.40,North,0,0.0,0.0,81,0.00,,,0.00,WUHU216HW,2013-05-25 07:26:00,
2013-05-25 03:31:00,39.0,33.7,30.41,North,0,0.0,0.0,81,0.00,,,0.00,WUHU216HW,2013-05-25 07:31:00,
2013-05-25 03:36:00,39.0,33.7,30.40,North,0,0.0,0.0,81,0.00,,,0.00,WUHU216HW,2013-05-25 07:36:00,
2013-05-25 03:41:00,39.0,33.7,30.40,North,0,0.0,0.0,81,0.00,,,0.00,WUHU216HW,2013-05-25 07:41:00,
2013-05-25 03:46:00,39.0,33.7,30.40,North,0,0.0,0.0,81,0.00,,,0.00,WUHU216HW,2013-05-25 07:46:00,
2013-05-25 03:51:00,38.8,33.5,30.39,North,0,0.0,0.0,81,0.00,,,0.00,WUHU216HW,2013-05-25 07:51:00,
2013-05-25 03:57:00,38.8,33.5,30.40,North,0,0.0,0.0,81,0.00,,,0.00,WUHU216HW,2013-05-25 07:57:00,
2013-05-25 04:02:00,38.6,33.3,30.39,North,0,0.0,0.0,81,0.00,,,0.00,WUHU216HW,2013-05-25 08:02:00,
2013-05-25 04:07:00,38.8,33.5,30.39,North,0,0.0,0.0,81,0.00,,,0.00,WUHU216HW,2013-05-25 08:07:00,
2013-05-25 04:12:00,38.6,33.3,30.39,North,0,0.0,0.0,81,0.00,,,0.00,WUHU216HW,2013-05-25 08:12:00,
2013-05-25 04:17:00,38.4,33.1,30.39,North,0,0.0,0.0,81,0.00,,,0.00,WUHU216HW,2013-05-25 08:17:00,
2013-05-25 04:22:00,38.4,33.4,30.39,North,0,0.0,0.0,82,0.00,,,0.00,WUHU216HW,2013-05-25 08:22:00,
2013-05-25 04:27:00,38.8,33.8,30.39,North,0,0.0,0.0,82,0.00,,,0.00,WUHU216HW,2013-05-25 08:27:00,
2013-05-25 04:32:00,39.0,34.0,30.39,North,0,0.0,0.0,82,0.00,,,0.00,WUHU216HW,2013-05-25 08:32:00,
2013-05-25 04:37:00,39.0,34.0,30.39,North,0,0.0,0.0,82,0.00,,,0.00,WUHU216HW,2013-05-25 08:37:00,
2013-05-25 04:42:00,39.0,34.0,30.40,North,0,0.0,0.0,82,0.00,,,0.00,WUHU216HW,2013-05-25 08:42:00,
2013-05-25 04:48:00,39.0,34.0,30.39,North,0,0.0,0.0,82,0.00,,,0.00,WUHU216HW,2013-05-25 08:48:00,
2013-05-25 04:53:00,39.0,34.0,30.40,North,0,0.0,0.0,82,0.00,,,0.00,WUHU216HW,2013-05-25 08:53:00,
2013-05-25 04:58:00,39.3,34.3,30.40,North,0,0.0,0.0,82,0.00,,,0.00,WUHU216HW,2013-05-25 08:58:00,
2013-05-25 05:03:00,39.3,34.3,30.39,North,0,0.0,0.0,82,0.00,,,0.00,WUHU216HW,2013-05-25 09:03:00,
2013-05-25 05:08:00,39.5,34.5,30.39,North,0,0.0,0.0,82,0.00,,,0.00,WUHU216HW,2013-05-25 09:08:00,
2013-05-25 05:13:00,39.7,34.9,30.40,North,0,0.0,0.0,83,0.00,,,0.00,WUHU216HW,2013-05-25 09:13:00,
2013-05-25 05:18:00,39.7,34.6,30.40,North,0,0.0,0.0,82,0.00,,,0.00,WUHU216HW,2013-05-25 09:18:00,
2013-05-25 05:23:00,39.7,34.9,30.40,North,0,0.0,0.0,83,0.00,,,0.00,WUHU216HW,2013-05-25 09:23:00,
2013-05-25 05:28:00,39.7,34.9,30.40,North,0,0.0,0.0,83,0.00,,,0.00,WUHU216HW,2013-05-25 09:28:00,
2013-05-25 05:33:00,39.7,34.6,30.41,North,0,0.0,0.0,82,0.00,,,0.00,WUHU216HW,2013-05-25 09:33:00,
2013-05-25 05:39:00,39.7,34.9,30.41,North,0,0.0,0.0,83,0.00,,,0.00,WUHU216HW,2013-05-25 09:39:00,
2013-05-25 05:44:00,39.5,34.5,30.41,North,0,0.0,0.0,82,0.00,,,0.00,WUHU216HW,2013-05-25 09:44:00,
2013-05-25 05:49:00,39.5,34.5,30.41,North,0,0.0,0.0,82,0.00,,,0.00,WUHU216HW,2013-05-25 09:49:00,
2013-05-25 05:54:00,39.5,34.5,30.41,North,0,0.0,0.0,82,0.00,,,0.00,WUHU216HW,2013-05-25 09:54:00,
2013-05-25 05:59:00,39.7,34.9,30.42,North,0,0.0,0.0,83,0.00,,,0.00,WUHU216HW,2013-05-25 09:59:00,
2013-05-25 06:04:00,39.7,34.9,30.42,North,0,0.0,0.0,83,0.00,,,0.00,WUHU216HW,2013-05-25 10:04:00,
2013-05-25 06:09:00,39.7,34.9,30.42,North,0,0.0,0.0,83,0.00,,,0.00,WUHU216HW,2013-05-25 10:09:00,
2013-05-25 06:14:00,39.7,34.5,30.42,North,0,0.0,0.0,82,0.00,,,0.00,WUHU216HW,2013-05-25 10:14:00,
2013-05-25 06:19:00,39.3,34.6,30.42,North,0,0.0,0.0,83,0.00,,,0.00,WUHU216HW,2013-05-25 10:19:00,
2013-05-25 06:24:00,39.3,34.6,30.42,North,0,0.0,0.0,83,0.00,,,0.00,WUHU216HW,2013-05-25 10:24:00,
2013-05-25 06:30:00,39.0,34.3,30.42,North,0,0.0,0.0,83,0.00,,,0.00,WUHU216HW,2013-05-25 10:30:00,
2013-05-25 06:35:00,39.0,34.3,30.43,North,0,0.0,0.0,83,0.00,,,0.00,WUHU216HW,2013-05-25 10:35:00,
2013-05-25 06:40:00,39.0,34.3,30.43,North,0,0.0,0.0,83,0.00,,,0.00,WUHU216HW,2013-05-25 10:40:00,
2013-05-25 06:45:00,39.0,34.5,30.43,North,0,0.0,0.0,84,0.00,,,0.00,WUHU216HW,2013-05-25 10:45:00,
2013-05-25 06:50:00,39.3,34.9,30.43,North,0,0.0,0.0,84,0.00,,,0.00,WUHU216HW,2013-05-25 10:50:00,
2013-05-25 06:55:00,39.5,35.0,30.44,North,0,0.0,0.0,84,0.00,,,0.00,WUHU216HW,2013-05-25 10:55:00,
2013-05-25 07:00:00,39.7,35.2,30.44,North,0,0.0,0.0,84,0.00,,,0.00,WUHU216HW,2013-05-25 11:00:00,
2013-05-25 07:05:00,39.5,35.0,30.44,North,0,0.0,0.0,84,0.00,,,0.00,WUHU216HW,2013-05-25 11:05:00,
2013-05-25 07:10:00,39.3,34.9,30.43,North,0,0.0,0.0,84,0.00,,,0.00,WUHU216HW,2013-05-25 11:10:00,
2013-05-25 07:15:00,39.3,34.9,30.44,North,0,0.0,0.0,84,0.00,,,0.00,WUHU216HW,2013-05-25 11:15:00,
2013-05-25 07:21:00,39.3,34.9,30.44,NNW,338,0.0,0.0,84,0.00,,,0.00,WUHU216HW,2013-05-25 11:21:00,
2013-05-25 07:26:00,39.5,35.0,30.44,North,0,0.0,0.0,84,0.00,,,0.00,WUHU216HW,2013-05-25 11:26:00,
2013-05-25 07:31:00,40.1,35.9,30.44,North,0,0.0,0.0,85,0.00,,,0.00,WUHU216HW,2013-05-25 11:31:00,
2013-05-25 07:36:00,40.4,36.2,30.45,NNW,338,0.0,0.0,85,0.00,,,0.00,WUHU216HW,2013-05-25 11:36:00,
2013-05-25 07:41:00,40.6,36.4,30.45,WSW,248,0.0,0.0,85,0.00,,,0.00,WUHU216HW,2013-05-25 11:41:00,
2013-05-25 07:46:00,40.8,36.5,30.45,WSW,248,0.0,0.0,85,0.00,,,0.00,WUHU216HW,2013-05-25 11:46:00,
2013-05-25 07:51:00,41.1,37.2,30.45,WSW,248,0.0,0.0,86,0.00,,,0.00,WUHU216HW,2013-05-25 11:51:00,
2013-05-25 07:56:00,41.3,37.4,30.46,WSW,248,0.0,0.0,86,0.00,,,0.00,WUHU216HW,2013-05-25 11:56:00,
2013-05-25 08:01:00,41.7,37.7,30.46,SSW,203,0.0,0.0,86,0.00,,,0.00,WUHU216HW,2013-05-25 12:01:00,
2013-05-25 08:06:00,41.9,37.9,30.47,SSW,203,0.0,0.0,86,0.00,,,0.00,WUHU216HW,2013-05-25 12:06:00,
2013-05-25 08:11:00,42.0,38.1,30.47,SSW,203,0.0,0.0,86,0.00,,,0.00,WUHU216HW,2013-05-25 12:11:00,
2013-05-25 08:17:00,42.4,38.5,30.47,SSW,203,0.0,0.0,86,0.00,,,0.00,WUHU216HW,2013-05-25 12:17:00,
2013-05-25 08:22:00,42.6,38.6,30.47,SSW,203,0.0,0.0,86,0.00,,,0.00,WUHU216HW,2013-05-25 12:22:00,
2013-05-25 08:27:00,43.3,39.4,30.47,SSW,203,0.0,0.0,86,0.00,,,0.00,WUHU216HW,2013-05-25 12:27:00,
2013-05-25 08:32:00,43.5,39.5,30.47,SSW,203,0.0,0.0,86,0.00,,,0.00,WUHU216HW,2013-05-25 12:32:00,
2013-05-25 08:37:00,43.8,39.9,30.47,SSW,203,0.0,0.0,86,0.00,,,0.00,WUHU216HW,2013-05-25 12:37:00,
2013-05-25 08:42:00,44.4,40.4,30.47,SSW,203,0.0,0.0,86,0.00,,,0.00,WUHU216HW,2013-05-25 12:42:00,
2013-05-25 08:47:00,44.7,40.8,30.47,SSW,203,0.0,0.0,86,0.00,,,0.00,WUHU216HW,2013-05-25 12:47:00,
2013-05-25 08:52:00,45.3,41.3,30.47,SSW,203,0.0,0.0,86,0.00,,,0.00,WUHU216HW,2013-05-25 12:52:00,
2013-05-25 08:57:00,45.6,41.7,30.48,SSW,203,0.0,0.0,86,0.00,,,0.00,WUHU216HW,2013-05-25 12:57:00,
2013-05-25 09:03:00,46.2,42.2,30.48,SSW,203,0.0,0.0,86,0.00,,,0.00,WUHU216HW,2013-05-25 13:03:00,
2013-05-25 09:08:00,47.1,43.1,30.48,SSW,203,0.0,0.0,86,0.00,,,0.00,WUHU216HW,2013-05-25 13:08:00,
2013-05-25 09:13:00,47.4,43.1,30.48,SSE,158,0.0,0.0,85,0.00,,,0.00,WUHU216HW,2013-05-25 13:13:00,
2013-05-25 09:18:00,48.0,43.3,30.48,SSE,158,0.0,0.0,84,0.00,,,0.00,WUHU216HW,2013-05-25 13:18:00,
2013-05-25 09:23:00,48.9,43.9,30.48,SSE,158,0.0,0.0,83,0.00,,,0.00,WUHU216HW,2013-05-25 13:23:00,
2013-05-25 09:28:00,49.1,43.7,30.49,SE,135,0.0,0.0,82,0.00,,,0.00,WUHU216HW,2013-05-25 13:28:00,
2013-05-25 09:33:00,49.2,43.6,30.49,SE,135,0.0,0.0,81,0.00,,,0.00,WUHU216HW,2013-05-25 13:33:00,
2013-05-25 09:38:00,50.0,43.3,30.49,SE,135,0.0,0.0,78,0.00,,,0.00,WUHU216HW,2013-05-25 13:38:00,
2013-05-25 09:43:00,50.5,43.2,30.49,SE,135,0.0,0.0,76,0.00,,,0.00,WUHU216HW,2013-05-25 13:43:00,
2013-05-25 09:48:00,50.9,43.5,30.49,SSW,203,0.0,0.8,76,0.00,,,0.00,WUHU216HW,2013-05-25 13:48:00,
2013-05-25 09:54:00,51.6,43.9,30.49,SSE,158,0.0,0.8,75,0.00,,,0.00,WUHU216HW,2013-05-25 13:54:00,
2013-05-25 09:59:00,52.5,44.1,30.49,SSE,158,0.0,0.0,73,0.00,,,0.00,WUHU216HW,2013-05-25 13:59:00,
2013-05-25 10:04:00,53.2,44.7,30.49,WNW,293,0.0,0.0,73,0.00,,,0.00,WUHU216HW,2013-05-25 14:04:00,
2013-05-25 10:09:00,53.7,44.9,30.49,WNW,293,0.0,0.0,72,0.00,,,0.00,WUHU216HW,2013-05-25 14:09:00,
2013-05-25 10:14:00,55.2,46.3,30.49,SSW,203,0.0,0.0,72,0.00,,,0.00,WUHU216HW,2013-05-25 14:14:00,
2013-05-25 10:19:00,55.9,47.0,30.49,NNE,23,0.0,0.0,72,0.00,,,0.00,WUHU216HW,2013-05-25 14:19:00,
2013-05-25 10:24:00,56.4,47.1,30.50,WNW,293,0.0,6.7,71,0.00,,,0.00,WUHU216HW,2013-05-25 14:24:00,
2013-05-25 10:29:00,57.0,47.6,30.49,North,0,0.0,6.7,71,0.00,,,0.00,WUHU216HW,2013-05-25 14:29:00,
2013-05-25 10:34:00,57.9,48.2,30.49,NW,315,0.0,0.0,70,0.00,,,0.00,WUHU216HW,2013-05-25 14:34:00,
2013-05-25 10:39:00,58.6,48.5,30.49,North,0,0.0,0.0,69,0.00,,,0.00,WUHU216HW,2013-05-25 14:39:00,
2013-05-25 10:45:00,58.8,48.2,30.49,NNW,338,0.0,2.2,68,0.00,,,0.00,WUHU216HW,2013-05-25 14:45:00,
2013-05-25 10:50:00,58.6,47.6,30.49,West,270,2.2,4.9,67,0.00,,,0.00,WUHU216HW,2013-05-25 14:50:00,
2013-05-25 10:55:00,58.4,47.4,30.49,WSW,248,1.1,4.9,67,0.00,,,0.00,WUHU216HW,2013-05-25 14:55:00,
2013-05-25 11:00:00,58.2,47.3,30.50,SW,225,0.0,1.5,67,0.00,,,0.00,WUHU216HW,2013-05-25 15:00:00,
2013-05-25 11:05:00,58.8,48.2,30.49,North,0,1.5,1.5,68,0.00,,,0.00,WUHU216HW,2013-05-25 15:05:00,
2013-05-25 11:10:00,59.7,48.3,30.49,North,0,0.6,1.5,66,0.00,,,0.00,WUHU216HW,2013-05-25 15:10:00,
2013-05-25 11:15:00,60.2,48.8,30.49,NNE,23,0.0,0.6,66,0.00,,,0.00,WUHU216HW,2013-05-25 15:15:00,
2013-05-25 11:20:00,60.9,49.1,30.49,NNW,338,0.0,0.6,65,0.00,,,0.00,WUHU216HW,2013-05-25 15:20:00,
2013-05-25 11:25:00,61.5,49.2,30.49,North,0,2.0,2.0,64,0.00,,,0.00,WUHU216HW,2013-05-25 15:25:00,
2013-05-25 11:30:00,62.0,49.3,30.49,NW,315,1.3,2.0,63,0.00,,,0.00,WUHU216HW,2013-05-25 15:30:00,
2013-05-25 11:35:00,61.8,48.7,30.49,North,0,0.0,2.0,62,0.00,,,0.00,WUHU216HW,2013-05-25 15:35:00,
2013-05-25 11:41:00,62.4,49.6,30.48,West,270,2.2,2.2,63,0.00,,,0.00,WUHU216HW,2013-05-25 15:41:00,
2013-05-25 11:46:00,62.6,49.2,30.48,NE,45,0.0,2.2,62,0.00,,,0.00,WUHU216HW,2013-05-25 15:46:00,
2013-05-25 11:51:00,63.1,49.5,30.48,North,0,0.0,0.0,62,0.00,,,0.00,WUHU216HW,2013-05-25 15:51:00,
2013-05-25 11:56:00,63.5,49.7,30.48,North,0,0.0,0.0,61,0.00,,,0.00,WUHU216HW,2013-05-25 15:56:00,
2013-05-25 12:01:00,64.0,49.8,30.48,North,0,0.0,0.8,60,0.00,,,0.00,WUHU216HW,2013-05-25 16:01:00,
2013-05-25 12:06:00,64.2,50.0,30.48,NNW,338,0.0,0.8,60,0.00,,,0.00,WUHU216HW,2013-05-25 16:06:00,
2013-05-25 12:11:00,64.0,49.3,30.48,North,0,0.0,0.8,59,0.00,,,0.00,WUHU216HW,2013-05-25 16:11:00,
2013-05-25 12:16:00,64.0,49.2,30.48,North,0,0.0,0.8,59,0.00,,,0.00,WUHU216HW,2013-05-25 16:16:00,
2013-05-25 12:21:00,63.6,49.0,30.49,North,0,0.0,0.0,59,0.00,,,0.00,WUHU216HW,2013-05-25 16:21:00,
2013-05-25 12:27:00,63.6,49.0,30.48,NW,315,0.0,0.0,59,0.00,,,0.00,WUHU216HW,2013-05-25 16:27:00,
2013-05-25 12:32:00,63.3,48.7,30.48,North,0,0.0,2.4,59,0.00,,,0.00,WUHU216HW,2013-05-25 16:32:00,
2013-05-25 12:37:00,63.3,48.7,30.48,North,0,0.0,2.4,59,0.00,,,0.00,WUHU216HW,2013-05-25 16:37:00,
2013-05-25 12:42:00,63.5,48.8,30.47,North,0,0.0,0.0,59,0.00,,,0.00,WUHU216HW,2013-05-25 16:42:00,
2013-05-25 12:47:00,64.0,48.3,30.47,NNW,338,0.8,0.8,57,0.00,,,0.00,WUHU216HW,2013-05-25 16:47:00,
2013-05-25 12:52:00,64.4,48.7,30.48,NNW,338,0.0,0.8,57,0.00,,,0.00,WUHU216HW,2013-05-25 16:52:00,
2013-05-25 12:57:00,64.5,48.4,30.48,North,0,0.8,0.8,56,0.00,,,0.00,WUHU216HW,2013-05-25 16:57:00,
2013-05-25 13:02:00,64.5,48.4,30.48,North,0,0.0,0.8,56,0.00,,,0.00,WUHU216HW,2013-05-25 17:02:00,
2013-05-25 13:07:00,64.5,48.4,30.48,North,0,0.0,0.8,56,0.00,,,0.00,WUHU216HW,2013-05-25 17:07:00,
2013-05-25 13:13:00,64.2,47.5,30.47,NW,315,0.0,3.1,55,0.00,,,0.00,WUHU216HW,2013-05-25 17:13:00,
2013-05-25 13:18:00,64.2,48.0,30.48,NW,315,0.0,3.1,56,0.00,,,0.00,WUHU216HW,2013-05-25 17:18:00,
2013-05-25 13:23:00,63.6,47.5,30.47,WNW,293,0.0,4.0,56,0.00,,,0.00,WUHU216HW,2013-05-25 17:23:00,
2013-05-25 13:28:00,63.5,47.4,30.48,NW,315,0.0,4.0,56,0.00,,,0.00,WUHU216HW,2013-05-25 17:28:00,
2013-05-25 13:33:00,63.3,47.2,30.48,North,0,0.0,0.0,56,0.00,,,0.00,WUHU216HW,2013-05-25 17:33:00,
2013-05-25 13:38:00,63.1,47.1,30.47,North,0,0.0,0.0,56,0.00,,,0.00,WUHU216HW,2013-05-25 17:38:00,
2013-05-25 13:43:00,62.7,46.7,30.47,North,0,0.0,0.0,56,0.00,,,0.00,WUHU216HW,2013-05-25 17:43:00,
2013-05-25 13:48:00,62.4,46.9,30.47,WNW,293,0.0,4.4,57,0.00,,,0.00,WUHU216HW,2013-05-25 17:48:00,
2013-05-25 13:53:00,62.4,47.4,30.47,NNW,338,0.0,4.4,58,0.00,,,0.00,WUHU216HW,2013-05-25 17:53:00,
2013-05-25 13:58:00,62.2,46.7,30.46,NW,315,0.0,0.0,57,0.00,,,0.00,WUHU216HW,2013-05-25 17:58:00,
2013-05-25 14:03:00,62.4,47.2,30.46,NNW,338,0.0,4.4,57,0.00,,,0.00,WUHU216HW,2013-05-25 18:03:00,
2013-05-25 14:09:00,62.6,47.1,30.46,North,0,0.0,4.4,57,0.00,,,0.00,WUHU216HW,2013-05-25 18:09:00,
2013-05-25 14:14:00,62.9,46.9,30.46,North,0,0.0,2.9,56,0.00,,,0.00,WUHU216HW,2013-05-25 18:14:00,
2013-05-25 14:19:00,63.1,47.1,30.46,North,0,0.0,2.9,56,0.00,,,0.00,WUHU216HW,2013-05-25 18:19:00,
2013-05-25 14:24:00,63.1,46.6,30.45,NNW,338,0.0,3.1,55,0.00,,,0.00,WUHU216HW,2013-05-25 18:24:00,
2013-05-25 14:29:00,63.1,46.6,30.45,WSW,248,0.0,3.1,55,0.00,,,0.00,WUHU216HW,2013-05-25 18:29:00,
2013-05-25 14:34:00,63.3,46.7,30.45,WNW,293,1.5,1.5,55,0.00,,,0.00,WUHU216HW,2013-05-25 18:34:00,
2013-05-25 14:39:00,63.1,46.6,30.45,NNW,338,0.0,1.5,55,0.00,,,0.00,WUHU216HW,2013-05-25 18:39:00,
2013-05-25 14:44:00,63.1,46.1,30.44,NNW,338,0.0,1.5,54,0.00,,,0.00,WUHU216HW,2013-05-25 18:44:00,
2013-05-25 14:49:00,63.1,46.1,30.44,North,0,0.0,0.0,54,0.00,,,0.00,WUHU216HW,2013-05-25 18:49:00,
2013-05-25 14:54:00,63.1,46.1,30.44,North,0,2.4,2.4,54,0.00,,,0.00,WUHU216HW,2013-05-25 18:54:00,
2013-05-25 14:59:00,63.1,46.1,30.44,NW,315,0.0,2.4,54,0.00,,,0.00,WUHU216HW,2013-05-25 18:59:00,
2013-05-25 15:05:00,63.1,45.6,30.44,NNW,338,0.0,2.2,53,0.00,,,0.00,WUHU216HW,2013-05-25 19:05:00,
2013-05-25 15:10:00,63.5,45.9,30.44,North,0,0.0,0.0,53,0.00,,,0.00,WUHU216HW,2013-05-25 19:10:00,
2013-05-25 15:15:00,63.6,46.1,30.43,NNW,338,0.0,0.0,53,0.00,,,0.00,WUHU216HW,2013-05-25 19:15:00,
2013-05-25 15:20:00,64.0,45.9,30.43,North,0,1.1,1.1,52,0.00,,,0.00,WUHU216HW,2013-05-25 19:20:00,
2013-05-25 15:25:00,64.2,46.1,30.43,West,270,0.8,1.1,52,0.00,,,0.00,WUHU216HW,2013-05-25 19:25:00,
2013-05-25 15:30:00,64.0,45.4,30.43,NNE,23,4.9,4.9,51,0.00,,,0.00,WUHU216HW,2013-05-25 19:30:00,
2013-05-25 15:35:00,64.0,45.9,30.44,NNW,338,3.1,4.9,52,0.00,,,0.00,WUHU216HW,2013-05-25 19:35:00,
2013-05-25 15:40:00,64.5,45.9,30.43,North,0,0.0,3.1,51,0.00,,,0.00,WUHU216HW,2013-05-25 19:40:00,
2013-05-25 15:45:00,64.7,46.1,30.43,NE,45,0.0,3.1,51,0.00,,,0.00,WUHU216HW,2013-05-25 19:45:00,
2013-05-25 15:50:00,65.1,46.0,30.43,NNW,338,0.0,2.4,50,0.00,,,0.00,WUHU216HW,2013-05-25 19:50:00,
2013-05-25 15:55:00,65.1,46.0,30.43,North,0,0.0,2.4,50,0.00,,,0.00,WUHU216HW,2013-05-25 19:55:00,
2013-05-25 16:01:00,65.1,46.0,30.42,North,0,0.0,1.1,50,0.00,,,0.00,WUHU216HW,2013-05-25 20:01:00,
2013-05-25 16:06:00,64.9,45.8,30.42,North,0,0.0,1.5,50,0.00,,,0.00,WUHU216HW,2013-05-25 20:06:00,
2013-05-25 16:11:00,64.5,45.5,30.42,North,0,2.6,2.6,50,0.00,,,0.00,WUHU216HW,2013-05-25 20:11:00,
2013-05-25 16:16:00,64.5,45.9,30.42,West,270,2.9,2.9,51,0.00,,,0.00,WUHU216HW,2013-05-25 20:16:00,
2013-05-25 16:21:00,64.5,45.9,30.41,North,0,0.0,2.9,51,0.00,,,0.00,WUHU216HW,2013-05-25 20:21:00,
2013-05-25 16:26:00,64.7,46.1,30.41,North,0,0.0,2.9,51,0.00,,,0.00,WUHU216HW,2013-05-25 20:26:00,
2013-05-25 16:31:00,64.9,45.8,30.41,NW,315,0.0,2.2,50,0.00,,,0.00,WUHU216HW,2013-05-25 20:31:00,
2013-05-25 16:36:00,65.1,45.4,30.41,NNW,338,0.0,2.2,49,0.00,,,0.00,WUHU216HW,2013-05-25 20:36:00,
2013-05-25 16:41:00,65.8,46.1,30.41,NNW,338,1.5,3.8,49,0.00,,,0.00,WUHU216HW,2013-05-25 20:41:00,
2013-05-25 16:46:00,65.8,46.1,30.41,WNW,293,0.0,4.4,49,0.00,,,0.00,WUHU216HW,2013-05-25 20:46:00,
2013-05-25 16:51:00,66.0,46.3,30.40,NW,315,0.0,4.4,49,0.00,,,0.00,WUHU216HW,2013-05-25 20:51:00,
2013-05-25 16:56:00,66.0,46.3,30.41,NNW,338,0.0,3.1,49,0.00,,,0.00,WUHU216HW,2013-05-25 20:56:00,
2013-05-25 17:02:00,66.0,46.3,30.40,NNE,23,0.0,3.1,49,0.00,,,0.00,WUHU216HW,2013-05-25 21:02:00,
2013-05-25 17:07:00,66.3,46.0,30.40,North,0,0.0,0.0,48,0.00,,,0.00,WUHU216HW,2013-05-25 21:07:00,
2013-05-25 17:12:00,66.2,45.3,30.40,WNW,293,0.0,0.0,47,0.00,,,0.00,WUHU216HW,2013-05-25 21:12:00,
2013-05-25 17:17:00,65.8,45.5,30.40,NNW,338,0.0,0.0,48,0.00,,,0.00,WUHU216HW,2013-05-25 21:17:00,
2013-05-25 17:22:00,65.1,43.7,30.40,North,0,0.0,0.0,46,0.00,,,0.00,WUHU216HW,2013-05-25 21:22:00,
2013-05-25 17:27:00,65.1,44.2,30.40,NNW,338,0.0,0.0,47,0.00,,,0.00,WUHU216HW,2013-05-25 21:27:00,
2013-05-25 17:32:00,65.1,44.8,30.41,North,0,0.0,1.3,48,0.00,,,0.00,WUHU216HW,2013-05-25 21:32:00,
2013-05-25 17:37:00,65.1,44.8,30.40,North,0,0.0,1.3,48,0.00,,,0.00,WUHU216HW,2013-05-25 21:37:00,
2013-05-25 17:42:00,65.1,45.4,30.40,North,0,4.6,4.6,49,0.00,,,0.00,WUHU216HW,2013-05-25 21:42:00,
2013-05-25 17:47:00,65.1,46.0,30.40,North,0,3.3,4.6,50,0.00,,,0.00,WUHU216HW,2013-05-25 21:47:00,
2013-05-25 17:52:00,65.1,46.0,30.40,NW,315,1.5,4.6,50,0.00,,,0.00,WUHU216HW,2013-05-25 21:52:00,
2013-05-25 17:58:00,64.5,45.5,30.40,NNE,23,0.0,3.5,50,0.00,,,0.00,WUHU216HW,2013-05-25 21:58:00,
2013-05-25 18:03:00,64.5,45.9,30.40,NNW,338,5.8,6.0,51,0.00,,,0.00,WUHU216HW,2013-05-25 22:03:00,
2013-05-25 18:08:00,64.5,46.4,30.40,NW,315,1.3,6.0,52,0.00,,,0.00,WUHU216HW,2013-05-25 22:08:00,
2013-05-25 18:13:00,64.7,47.1,30.40,NNW,338,3.5,5.8,53,0.00,,,0.00,WUHU216HW,2013-05-25 22:13:00,
2013-05-25 18:18:00,65.1,47.4,30.40,NNW,338,1.7,3.5,53,0.00,,,0.00,WUHU216HW,2013-05-25 22:18:00,
2013-05-25 18:23:00,65.1,47.4,30.40,NNE,23,1.5,3.5,53,0.00,,,0.00,WUHU216HW,2013-05-25 22:23:00,
2013-05-25 18:28:00,64.5,46.9,30.40,North,0,0.0,3.5,53,0.00,,,0.00,WUHU216HW,2013-05-25 22:28:00,
2013-05-25 18:33:00,64.5,46.9,30.40,North,0,4.2,4.2,53,0.00,,,0.00,WUHU216HW,2013-05-25 22:33:00,
2013-05-25 18:38:00,64.4,46.2,30.40,North,0,4.4,6.9,52,0.00,,,0.00,WUHU216HW,2013-05-25 22:38:00,
2013-05-25 18:43:00,64.2,45.6,30.40,North,0,0.0,6.9,51,0.00,,,0.00,WUHU216HW,2013-05-25 22:43:00,
2013-05-25 18:48:00,64.0,45.4,30.40,NE,45,0.0,4.4,51,0.00,,,0.00,WUHU216HW,2013-05-25 22:48:00,
2013-05-25 18:54:00,64.0,45.4,30.40,NE,45,0.0,1.1,51,0.00,,,0.00,WUHU216HW,2013-05-25 22:54:00,
2013-05-25 18:59:00,63.6,45.6,30.40,NW,315,0.0,1.1,52,0.00,,,0.00,WUHU216HW,2013-05-25 22:59:00,
2013-05-25 19:04:00,63.1,45.1,30.40,North,0,0.0,2.4,52,0.00,,,0.00,WUHU216HW,2013-05-25 23:04:00,
2013-05-25 19:09:00,62.7,45.3,30.40,North,0,2.0,2.4,53,0.00,,,0.00,WUHU216HW,2013-05-25 23:09:00,
2013-05-25 19:14:00,62.2,44.8,30.40,WNW,293,0.0,2.0,53,0.00,,,0.00,WUHU216HW,2013-05-25 23:14:00,
2013-05-25 19:19:00,61.7,44.3,30.40,North,0,3.5,5.8,53,0.00,,,0.00,WUHU216HW,2013-05-25 23:19:00,
2013-05-25 19:24:00,61.5,44.1,30.40,NNE,23,0.0,5.8,53,0.00,,,0.00,WUHU216HW,2013-05-25 23:24:00,
2013-05-25 19:29:00,61.1,44.3,30.40,North,0,2.9,3.5,54,0.00,,,0.00,WUHU216HW,2013-05-25 23:29:00,
2013-05-25 19:34:00,60.9,44.6,30.40,North,0,0.0,3.5,55,0.00,,,0.00,WUHU216HW,2013-05-25 23:34:00,
2013-05-25 19:39:00,60.6,44.3,30.40,North,0,0.0,2.9,55,0.00,,,0.00,WUHU216HW,2013-05-25 23:39:00,
2013-05-25 19:44:00,60.0,43.8,30.40,NE,45,0.0,0.0,55,0.00,,,0.00,WUHU216HW,2013-05-25 23:44:00,
2013-05-25 19:49:00,59.5,43.3,30.40,North,0,0.0,1.5,55,0.00,,,0.00,WUHU216HW,2013-05-25 23:49:00,
2013-05-25 19:55:00,59.1,43.4,30.39,NNW,338,4.6,4.6,56,0.00,,,0.00,WUHU216HW,2013-05-25 23:55:00,
2013-05-25 20:00:00,58.6,42.9,30.39,North,0,0.8,4.6,56,0.00,,,0.00,WUHU216HW,2013-05-26 00:00:00,
2013-05-25 20:05:00,58.2,42.6,30.39,North,0,0.0,0.8,56,0.00,,,0.00,WUHU216HW,2013-05-26 00:05:00,
2013-05-25 20:10:00,57.7,42.1,30.39,NNW,338,0.0,0.0,56,0.00,,,0.00,WUHU216HW,2013-05-26 00:10:00,
2013-05-25 20:15:00,57.3,42.2,30.39,North,0,0.0,0.0,57,0.00,,,0.00,WUHU216HW,2013-05-26 00:15:00,
2013-05-25 20:20:00,57.0,41.9,30.39,NNE,23,0.0,0.0,57,0.00,,,0.00,WUHU216HW,2013-05-26 00:20:00,
2013-05-25 20:25:00,56.8,41.7,30.39,North,0,0.0,0.0,57,0.00,,,0.00,WUHU216HW,2013-05-26 00:25:00,
2013-05-25 20:30:00,56.4,41.8,30.39,North,0,0.0,0.8,58,0.00,,,0.00,WUHU216HW,2013-05-26 00:30:00,
2013-05-25 20:35:00,56.4,41.8,30.39,North,0,0.0,2.0,58,0.00,,,0.00,WUHU216HW,2013-05-26 00:35:00,
2013-05-25 20:40:00,56.3,41.6,30.39,North,0,0.0,2.0,58,0.00,,,0.00,WUHU216HW,2013-05-26 00:40:00,
2013-05-25 20:45:00,56.1,41.5,30.39,NNE,23,0.0,0.0,58,0.00,,,0.00,WUHU216HW,2013-05-26 00:45:00,
2013-05-25 20:50:00,55.9,41.3,30.38,North,0,2.0,2.0,58,0.00,,,0.00,WUHU216HW,2013-05-26 00:50:00,
2013-05-25 20:56:00,55.7,41.6,30.39,North,0,0.0,2.0,59,0.00,,,0.00,WUHU216HW,2013-05-26 00:56:00,
2013-05-25 21:01:00,55.5,41.4,30.38,NNE,23,0.0,0.0,59,0.00,,,0.00,WUHU216HW,2013-05-26 01:01:00,
2013-05-25 21:06:00,55.4,41.2,30.38,North,0,0.0,0.0,59,0.00,,,0.00,WUHU216HW,2013-05-26 01:06:00,
2013-05-25 21:11:00,55.2,41.0,30.38,North,0,0.0,0.0,59,0.00,,,0.00,WUHU216HW,2013-05-26 01:11:00,
2013-05-25 21:16:00,55.2,41.0,30.38,NNE,23,0.0,0.0,59,0.00,,,0.00,WUHU216HW,2013-05-26 01:16:00,
2013-05-25 21:21:00,55.0,41.3,30.38,NNE,23,0.0,0.0,60,0.00,,,0.00,WUHU216HW,2013-05-26 01:21:00,
2013-05-25 21:26:00,55.0,41.3,30.38,North,0,0.0,0.0,60,0.00,,,0.00,WUHU216HW,2013-05-26 01:26:00,
2013-05-25 21:31:00,54.6,41.0,30.38,NNW,338,0.0,0.0,60,0.00,,,0.00,WUHU216HW,2013-05-26 01:31:00,
2013-05-25 21:36:00,54.5,40.9,30.39,NNW,338,0.0,0.0,60,0.00,,,0.00,WUHU216HW,2013-05-26 01:36:00,
2013-05-25 21:42:00,54.3,40.7,30.38,NNW,338,0.0,0.0,60,0.00,,,0.00,WUHU216HW,2013-05-26 01:42:00,
2013-05-25 21:47:00,54.1,40.5,30.38,North,0,0.0,0.0,60,0.00,,,0.00,WUHU216HW,2013-05-26 01:47:00,
2013-05-25 21:52:00,53.9,40.8,30.39,North,0,0.0,0.0,61,0.00,,,0.00,WUHU216HW,2013-05-26 01:52:00,
2013-05-25 21:57:00,53.7,40.6,30.39,North,0,0.0,0.0,61,0.00,,,0.00,WUHU216HW,2013-05-26 01:57:00,
2013-05-25 22:02:00,53.4,40.3,30.39,North,0,0.0,0.0,61,0.00,,,0.00,WUHU216HW,2013-05-26 02:02:00,
2013-05-25 22:07:00,53.2,40.1,30.39,North,0,0.0,0.0,61,0.00,,,0.00,WUHU216HW,2013-05-26 02:07:00,
2013-05-25 22:12:00,53.2,40.5,30.39,North,0,0.0,0.0,62,0.00,,,0.00,WUHU216HW,2013-05-26 02:12:00,
2013-05-25 22:17:00,53.2,40.5,30.39,North,0,0.0,0.0,62,0.00,,,0.00,WUHU216HW,2013-05-26 02:17:00,
2013-05-25 22:22:00,52.8,40.5,30.39,North,0,0.0,0.0,63,0.00,,,0.00,WUHU216HW,2013-05-26 02:22:00,
2013-05-25 22:27:00,52.7,40.4,30.39,North,0,0.0,0.0,63,0.00,,,0.00,WUHU216HW,2013-05-26 02:27:00,
2013-05-25 22:33:00,52.5,40.2,30.39,North,0,0.0,0.0,63,0.00,,,0.00,WUHU216HW,2013-05-26 02:33:00,
2013-05-25 22:38:00,52.3,40.0,30.39,North,0,0.0,0.0,63,0.00,,,0.00,WUHU216HW,2013-05-26 02:38:00,
2013-05-25 22:43:00,51.9,40.1,30.39,North,0,0.0,0.0,64,0.00,,,0.00,WUHU216HW,2013-05-26 02:43:00,
2013-05-25 22:48:00,51.6,40.1,30.39,North,0,0.0,0.0,65,0.00,,,0.00,WUHU216HW,2013-05-26 02:48:00,
2013-05-25 22:53:00,51.4,40.0,30.39,North,0,0.0,0.0,65,0.00,,,0.00,WUHU216HW,2013-05-26 02:53:00,
2013-05-25 22:58:00,51.0,40.0,30.40,North,0,0.0,0.0,66,0.00,,,0.00,WUHU216HW,2013-05-26 02:58:00,
2013-05-25 23:03:00,50.7,39.7,30.39,North,0,0.0,0.0,66,0.00,,,0.00,WUHU216HW,2013-05-26 03:03:00,
2013-05-25 23:08:00,50.5,39.5,30.39,North,0,0.0,0.0,66,0.00,,,0.00,WUHU216HW,2013-05-26 03:08:00,
2013-05-25 23:13:00,50.5,39.9,30.39,North,0,0.0,0.0,67,0.00,,,0.00,WUHU216HW,2013-05-26 03:13:00,
2013-05-25 23:19:00,50.1,40.0,30.39,North,0,0.0,0.0,68,0.00,,,0.00,WUHU216HW,2013-05-26 03:19:00,
2013-05-25 23:24:00,50.0,39.8,30.39,North,0,0.0,0.0,68,0.00,,,0.00,WUHU216HW,2013-05-26 03:24:00,
2013-05-25 23:29:00,49.8,39.6,30.39,North,0,0.0,0.0,68,0.00,,,0.00,WUHU216HW,2013-05-26 03:29:00,
2013-05-25 23:34:00,49.6,39.8,30.39,North,0,0.0,0.0,69,0.00,,,0.00,WUHU216HW,2013-05-26 03:34:00,
2013-05-25 23:39:00,49.2,39.1,30.39,North,0,0.0,0.0,68,0.00,,,0.00,WUHU216HW,2013-05-26 03:39:00,
2013-05-25 23:44:00,48.9,39.1,30.39,North,0,0.0,0.0,69,0.00,,,0.00,WUHU216HW,2013-05-26 03:44:00,
2013-05-25 23:49:00,48.7,39.3,30.39,North,0,0.0,0.0,70,0.00,,,0.00,WUHU216HW,2013-05-26 03:49:00,
2013-05-25 23:54:00,48.5,39.2,30.39,North,0,0.0,0.0,70,0.00,,,0.00,WUHU216HW,2013-05-26 03:54:00,
2013-05-25 23:59:00,48.0,39.0,30.39,North,0,0.0,0.0,71,0.00,,,0.00,WUHU216HW,2013-05-26 03:59:00,